createdAt,value
2017-09-18T04:22:06.593Z,6.50
2017-09-18T04:24:39.770Z,6.40
2017-09-18T04:27:08.924Z,6.50
2017-09-18T04:29:36.846Z,6.40
2017-09-18T04:32:04.795Z,6.50
2017-09-18T04:34:32.759Z,6.50
2017-09-18T04:37:00.755Z,6.60
2017-09-18T04:39:28.729Z,6.50
2017-09-18T04:41:58.590Z,6.50
2017-09-18T04:44:30.314Z,6.60
2017-09-18T04:47:05.009Z,6.50
2017-09-18T04:49:38.122Z,6.40
2017-09-18T04:52:11.932Z,6.40
2017-09-18T04:54:40.134Z,6.40
2017-09-18T04:57:08.170Z,6.50
2017-09-18T04:59:36.101Z,6.50
2017-09-18T05:02:04.045Z,6.50
2017-09-18T05:04:32.380Z,6.60
2017-09-18T05:07:00.353Z,6.50
2017-09-18T05:09:28.288Z,6.50
2017-09-18T05:11:56.250Z,6.50
2017-09-18T05:14:24.167Z,6.40
2017-09-18T05:16:52.160Z,6.50
2017-09-18T05:19:20.084Z,6.60
2017-09-18T05:21:56.840Z,6.70
2017-09-18T05:24:24.767Z,6.60
2017-09-18T05:26:52.709Z,6.80
2017-09-18T05:29:21.386Z,6.80
2017-09-18T05:31:49.378Z,6.80
2017-09-18T05:34:17.322Z,6.80
2017-09-18T05:36:45.258Z,6.80
2017-09-18T05:39:13.148Z,6.90
2017-09-18T05:41:41.085Z,7.00
2017-09-18T05:44:08.974Z,7.00
2017-09-18T05:46:36.947Z,7.10
2017-09-18T05:49:04.824Z,7.20
2017-09-18T05:51:32.840Z,7.30
2017-09-18T05:54:00.751Z,7.30
2017-09-18T05:56:28.637Z,7.40
2017-09-18T05:58:56.580Z,7.30
2017-09-18T06:01:24.458Z,7.30
2017-09-18T06:03:52.396Z,7.30
2017-09-18T06:06:20.309Z,7.50
2017-09-18T06:08:48.252Z,7.50
2017-09-18T06:11:16.176Z,7.60
2017-09-18T06:13:44.865Z,7.70
2017-09-18T06:16:13.517Z,7.70
2017-09-18T06:18:41.447Z,7.60
2017-09-18T06:21:13.048Z,7.80
2017-09-18T06:23:40.973Z,8.00
2017-09-18T06:26:08.854Z,8.10
2017-09-18T06:28:36.821Z,8.10
2017-09-18T06:31:04.712Z,8.20
2017-09-18T06:33:32.641Z,8.50
2017-09-18T06:36:00.572Z,8.70
2017-09-18T06:38:28.495Z,8.80
2017-09-18T06:40:56.358Z,8.80
2017-09-18T06:43:24.327Z,8.70
2017-09-18T06:45:52.278Z,8.60
2017-09-18T06:48:20.200Z,8.50
2017-09-18T06:50:48.073Z,8.70
2017-09-18T06:53:16.007Z,9.00
2017-09-18T06:55:43.876Z,9.60
2017-09-18T06:58:11.870Z,10.20
2017-09-18T07:00:39.781Z,10.60
2017-09-18T07:03:08.507Z,11.50
2017-09-18T07:05:36.451Z,11.40
2017-09-18T07:08:04.357Z,11.80
2017-09-18T07:10:32.302Z,12.30
2017-09-18T07:13:00.208Z,13.10
2017-09-18T07:15:28.156Z,13.10
2017-09-18T07:17:56.095Z,13.10
2017-09-18T07:20:27.740Z,13.20
2017-09-18T07:22:56.445Z,15.20
2017-09-18T07:25:24.344Z,15.20
2017-09-18T07:27:52.280Z,16.20
2017-09-18T07:30:20.185Z,17.30
2017-09-18T07:32:48.131Z,17.40
2017-09-18T07:35:16.029Z,17.00
2017-09-18T07:37:43.960Z,17.50
2017-09-18T07:40:11.897Z,17.00
2017-09-18T07:42:40.559Z,14.90
2017-09-18T07:45:08.513Z,14.80
2017-09-18T07:47:36.396Z,14.70
2017-09-18T07:50:05.291Z,14.50
2017-09-18T07:52:33.182Z,14.00
2017-09-18T07:55:01.129Z,14.10
2017-09-18T07:57:29.080Z,15.20
2017-09-18T07:59:57.056Z,15.20
2017-09-18T08:02:24.992Z,15.30
2017-09-18T08:04:52.987Z,15.20
2017-09-18T08:07:21.647Z,15.80
2017-09-18T08:09:50.076Z,16.10
2017-09-18T08:12:20.314Z,16.30
2017-09-18T08:14:48.287Z,17.50
2017-09-18T08:17:16.699Z,17.50
2017-09-18T08:19:45.359Z,17.20
2017-09-18T08:22:13.446Z,17.40
2017-09-18T08:24:41.474Z,17.00
2017-09-18T08:27:09.384Z,18.10
2017-09-18T08:29:38.113Z,18.60
2017-09-18T08:32:06.017Z,18.60
2017-09-18T08:34:34.054Z,17.60
2017-09-18T08:37:01.984Z,17.60
2017-09-18T08:39:30.694Z,16.50
2017-09-18T08:41:58.819Z,16.40
2017-09-18T08:44:26.788Z,17.50
2017-09-18T08:46:54.712Z,18.30
2017-09-18T08:49:22.665Z,17.80
2017-09-18T08:51:50.573Z,17.40
2017-09-18T08:54:18.527Z,17.00
2017-09-18T08:56:46.509Z,17.00
2017-09-18T08:59:14.458Z,16.90
2017-09-18T09:01:42.362Z,16.70
2017-09-18T09:04:10.265Z,15.70
2017-09-18T09:06:38.233Z,15.30
2017-09-18T09:09:06.937Z,15.10
2017-09-18T09:11:35.134Z,15.00
2017-09-18T09:14:03.106Z,15.50
2017-09-18T09:16:31.193Z,15.20
2017-09-18T09:18:59.126Z,14.70
2017-09-18T09:21:27.085Z,14.80
2017-09-18T09:23:55.038Z,14.70
2017-09-18T09:26:23.028Z,14.50
2017-09-18T09:28:51.734Z,14.50
2017-09-18T09:31:19.712Z,14.50
2017-09-18T09:33:47.646Z,14.50
2017-09-18T09:36:16.420Z,14.20
2017-09-18T09:38:44.653Z,14.20
2017-09-18T09:41:16.190Z,14.20
2017-09-18T09:43:44.076Z,14.40
2017-09-18T09:46:12.018Z,15.30
2017-09-18T09:48:39.920Z,15.70
2017-09-18T09:51:07.893Z,16.50
2017-09-18T09:53:35.778Z,17.50
2017-09-18T09:56:03.744Z,17.50
2017-09-18T09:58:31.710Z,17.30
2017-09-18T10:00:59.668Z,18.40
2017-09-18T10:03:27.565Z,19.20
2017-09-18T10:05:55.498Z,19.20
2017-09-18T10:08:23.419Z,18.40
2017-09-18T10:10:51.573Z,17.80
2017-09-18T10:13:19.479Z,16.80
2017-09-18T10:15:47.440Z,16.30
2017-09-18T10:18:15.340Z,17.20
2017-09-18T10:20:43.325Z,18.10
2017-09-18T10:23:11.220Z,19.50
2017-09-18T10:25:39.128Z,19.90
2017-09-18T10:28:07.131Z,19.60
2017-09-18T10:30:35.102Z,18.50
2017-09-18T10:33:03.906Z,17.30
2017-09-18T10:35:31.886Z,17.30
2017-09-18T10:37:59.882Z,16.70
2017-09-18T10:40:28.998Z,16.60
2017-09-18T10:42:57.009Z,16.40
2017-09-18T10:45:25.753Z,16.60
2017-09-18T10:47:54.219Z,16.20
2017-09-18T10:50:22.259Z,15.50
2017-09-18T10:52:50.214Z,15.40
2017-09-18T10:55:18.123Z,15.70
2017-09-18T10:57:46.086Z,15.30
2017-09-18T11:00:13.999Z,15.20
2017-09-18T11:02:41.933Z,15.20
2017-09-18T11:05:09.845Z,15.50
2017-09-18T11:07:37.805Z,15.40
2017-09-18T11:10:05.707Z,15.70
2017-09-18T11:12:33.662Z,15.30
2017-09-18T11:15:01.582Z,15.20
2017-09-18T11:17:29.536Z,15.50
2017-09-18T11:19:57.431Z,15.60
2017-09-18T11:22:26.093Z,15.70
2017-09-18T11:24:54.038Z,15.70
2017-09-18T11:27:21.924Z,15.50
2017-09-18T11:29:49.956Z,15.70
2017-09-18T11:32:21.571Z,15.70
2017-09-18T11:34:49.522Z,15.50
2017-09-18T11:37:17.421Z,15.10
2017-09-18T11:39:46.153Z,15.90
2017-09-18T11:42:14.051Z,15.90
2017-09-18T11:44:41.988Z,16.40
2017-09-18T11:47:09.908Z,16.80
2017-09-18T11:49:37.857Z,17.20
2017-09-18T11:52:05.745Z,16.80
2017-09-18T11:54:34.574Z,17.20
2017-09-18T11:57:02.502Z,17.20
2017-09-18T11:59:30.468Z,17.00
2017-09-18T12:01:58.437Z,17.10
2017-09-18T12:04:26.406Z,18.00
2017-09-18T12:06:54.322Z,18.50
2017-09-18T12:09:22.292Z,18.80
2017-09-18T12:11:50.209Z,18.10
2017-09-18T12:14:18.196Z,18.80
2017-09-18T12:16:46.268Z,19.20
2017-09-18T12:19:14.346Z,19.50
2017-09-18T12:21:42.303Z,20.00
2017-09-18T12:24:10.230Z,19.30
2017-09-18T12:26:38.182Z,18.60
2017-09-18T12:29:06.095Z,18.20
2017-09-18T12:31:34.164Z,17.20
2017-09-18T12:34:02.059Z,16.70
2017-09-18T12:36:30.008Z,16.70
2017-09-18T12:38:57.910Z,16.60
2017-09-18T12:41:26.622Z,16.30
2017-09-18T12:43:54.531Z,16.30
2017-09-18T12:46:22.470Z,15.80
2017-09-18T12:48:50.357Z,16.10
2017-09-18T12:51:18.346Z,16.40
2017-09-18T12:53:46.290Z,16.30
2017-09-18T12:56:14.346Z,16.70
2017-09-18T12:58:42.573Z,16.70
2017-09-18T13:01:12.781Z,16.90
2017-09-18T13:03:40.725Z,16.90
2017-09-18T13:06:08.718Z,16.90
2017-09-18T13:08:36.677Z,17.50
2017-09-18T13:11:04.765Z,17.90
2017-09-18T13:13:32.715Z,18.20
2017-09-18T13:16:00.738Z,18.20
2017-09-18T13:18:32.761Z,18.20
2017-09-18T13:21:00.744Z,18.00
2017-09-18T13:23:28.647Z,17.30
2017-09-18T13:25:56.570Z,17.40
2017-09-18T13:28:24.569Z,17.00
2017-09-18T13:30:53.262Z,16.40
2017-09-18T13:33:22.082Z,16.30
2017-09-18T13:35:49.987Z,16.30
2017-09-18T13:38:17.974Z,16.10
2017-09-18T13:40:45.921Z,15.80
2017-09-18T13:43:13.860Z,15.70
2017-09-18T13:45:41.770Z,15.30
2017-09-18T13:48:09.796Z,15.00
2017-09-18T13:50:41.374Z,14.80
2017-09-18T13:53:15.091Z,14.90
2017-09-18T13:55:43.730Z,14.90
2017-09-18T13:58:19.235Z,15.00
2017-09-18T14:00:47.277Z,14.80
2017-09-18T14:03:23.440Z,15.10
2017-09-18T14:05:51.489Z,14.90
2017-09-18T14:08:19.631Z,15.00
2017-09-18T14:10:48.967Z,14.90
2017-09-18T14:13:18.289Z,14.80
2017-09-18T14:15:51.955Z,15.30
2017-09-18T14:18:24.320Z,15.40
2017-09-18T14:21:00.610Z,15.70
2017-09-18T14:23:28.799Z,16.40
2017-09-18T14:25:57.628Z,16.30
2017-09-18T14:28:26.974Z,16.40
2017-09-18T14:30:55.097Z,16.10
2017-09-18T14:33:23.120Z,15.70
2017-09-18T14:35:56.339Z,15.70
2017-09-18T14:38:26.046Z,15.60
2017-09-18T14:41:00.035Z,15.50
2017-09-18T14:46:28.056Z,15.40
2017-09-18T14:48:59.862Z,15.40
2017-09-18T14:51:29.716Z,15.40
2017-09-18T14:54:04.112Z,15.50
2017-09-18T14:56:33.310Z,15.60
2017-09-18T14:59:03.025Z,15.50
2017-09-18T15:01:32.723Z,15.40
2017-09-18T15:04:06.621Z,15.20
2017-09-18T15:06:38.689Z,15.10
2017-09-18T15:09:09.806Z,15.20
2017-09-18T15:11:41.170Z,15.20
2017-09-18T15:14:12.222Z,15.40
2017-09-18T15:16:48.617Z,15.20
2017-09-18T15:19:22.827Z,15.20
2017-09-18T15:21:56.259Z,15.30
2017-09-18T15:24:26.120Z,15.20
2017-09-18T15:27:01.109Z,15.20
2017-09-18T15:29:35.978Z,15.30
2017-09-18T15:32:10.433Z,15.30
2017-09-18T15:34:39.633Z,15.30
2017-09-18T15:37:11.783Z,15.30
2017-09-18T15:39:41.819Z,15.40
2017-09-18T15:42:12.776Z,15.50
2017-09-18T15:44:41.163Z,15.50
2017-09-18T15:47:11.541Z,15.30
2017-09-18T15:49:46.670Z,15.30
2017-09-18T15:52:17.060Z,15.10
2017-09-18T15:54:52.319Z,15.10
2017-09-18T15:57:21.104Z,15.10
2017-09-18T15:59:52.150Z,14.90
2017-09-18T16:02:21.085Z,14.90
2017-09-18T16:04:51.939Z,14.80
2017-09-18T16:07:26.293Z,14.80
2017-09-18T16:10:04.649Z,14.70
2017-09-18T16:12:37.651Z,14.60
2017-09-18T16:15:10.819Z,14.40
2017-09-18T16:17:40.034Z,14.40
2017-09-18T16:20:08.415Z,14.30
2017-09-18T16:22:36.459Z,14.20
2017-09-18T16:25:04.456Z,14.20
2017-09-18T16:27:32.564Z,14.20
2017-09-18T16:30:03.419Z,14.20
2017-09-18T16:32:33.338Z,14.20
2017-09-18T16:35:01.320Z,14.10
2017-09-18T16:37:30.159Z,14.10
2017-09-18T16:39:58.154Z,14.00
2017-09-18T16:42:26.557Z,14.00
2017-09-18T16:44:54.517Z,13.90
2017-09-18T16:47:22.551Z,13.90
2017-09-18T16:49:50.524Z,13.90
2017-09-18T16:52:18.520Z,13.80
2017-09-18T16:54:46.483Z,13.80
2017-09-18T16:57:14.560Z,13.70
2017-09-18T16:59:42.607Z,13.70
2017-09-18T17:02:12.416Z,13.70
2017-09-18T17:04:41.837Z,13.70
2017-09-18T17:07:09.867Z,13.70
2017-09-18T17:09:37.829Z,13.70
2017-09-18T17:12:06.009Z,13.60
2017-09-18T17:14:33.906Z,13.50
2017-09-18T17:17:01.889Z,13.50
2017-09-18T17:19:29.794Z,13.40
2017-09-18T17:21:57.709Z,13.50
2017-09-18T17:24:25.733Z,13.40
2017-09-18T17:27:11.079Z,13.40
2017-09-18T17:29:39.137Z,13.40
2017-09-18T17:32:07.857Z,13.40
2017-09-18T17:34:35.902Z,13.30
2017-09-18T17:37:03.825Z,13.30
2017-09-18T17:39:31.875Z,13.30
2017-09-18T17:41:59.793Z,13.10
2017-09-18T17:44:29.938Z,13.00
2017-09-18T17:46:57.838Z,12.90
2017-09-18T17:49:25.842Z,12.80
2017-09-18T17:51:53.740Z,12.60
2017-09-18T17:54:21.712Z,12.60
2017-09-18T17:56:49.616Z,12.50
2017-09-18T17:59:17.570Z,12.40
2017-09-18T18:01:48.568Z,12.30
2017-09-18T18:04:16.556Z,12.30
2017-09-18T18:06:44.479Z,12.30
2017-09-18T18:09:12.449Z,12.40
2017-09-18T18:11:40.412Z,12.40
2017-09-18T18:14:08.380Z,12.40
2017-09-18T18:16:36.304Z,12.40
2017-09-18T18:19:04.266Z,12.30
2017-09-18T18:21:32.951Z,12.20
2017-09-18T18:24:00.916Z,12.20
2017-09-18T18:26:28.887Z,12.10
2017-09-18T18:28:56.861Z,11.90
2017-09-18T18:31:26.687Z,11.70
2017-09-18T18:33:55.422Z,11.70
2017-09-18T18:36:23.338Z,11.60
2017-09-18T18:38:51.323Z,11.60
2017-09-18T18:41:19.235Z,11.50
2017-09-18T18:43:47.179Z,11.40
2017-09-18T18:46:15.165Z,11.40
2017-09-18T18:48:43.076Z,11.40
2017-09-18T18:51:11.098Z,11.40
2017-09-18T18:53:39.262Z,11.40
2017-09-18T18:56:07.219Z,11.40
2017-09-18T18:58:35.124Z,11.50
2017-09-18T19:01:06.983Z,11.50
2017-09-18T19:03:34.910Z,11.60
2017-09-18T19:06:02.896Z,11.60
2017-09-18T19:08:30.830Z,11.70
2017-09-18T19:10:58.886Z,11.70
2017-09-18T19:13:26.876Z,11.70
2017-09-18T19:15:54.908Z,11.80
2017-09-18T19:18:22.889Z,11.80
2017-09-18T19:20:51.003Z,11.70
2017-09-18T19:23:19.015Z,11.70
2017-09-18T19:25:47.007Z,11.60
2017-09-18T19:28:14.967Z,11.60
2017-09-18T19:30:46.370Z,11.50
2017-09-18T19:33:14.327Z,11.50
2017-09-18T19:35:43.078Z,11.50
2017-09-18T19:38:11.000Z,11.40
2017-09-18T19:40:38.963Z,11.50
2017-09-18T19:43:07.738Z,11.60
2017-09-18T19:45:35.709Z,11.60
2017-09-18T19:48:03.608Z,11.60
2017-09-18T19:50:31.517Z,11.50
2017-09-18T19:52:59.479Z,11.40
2017-09-18T19:55:27.373Z,11.20
2017-09-18T19:57:55.344Z,11.20
2017-09-18T20:00:23.430Z,11.20
2017-09-18T20:02:51.383Z,11.30
2017-09-18T20:05:19.304Z,11.30
2017-09-18T20:07:47.249Z,11.30
2017-09-18T20:10:15.912Z,11.30
2017-09-18T20:12:43.978Z,11.30
2017-09-18T20:15:11.946Z,11.30
2017-09-18T20:17:39.965Z,11.30
2017-09-18T20:20:08.047Z,11.30
2017-09-18T20:22:36.001Z,11.20
2017-09-18T20:25:03.917Z,11.10
2017-09-18T20:27:31.886Z,11.10
2017-09-18T20:29:59.826Z,11.20
2017-09-18T20:32:27.791Z,11.20
2017-09-18T20:34:55.757Z,11.10
2017-09-18T20:37:23.735Z,11.20
2017-09-18T20:39:51.670Z,11.20
2017-09-18T20:42:21.309Z,11.20
2017-09-18T20:44:49.258Z,11.20
2017-09-18T20:47:17.264Z,11.20
2017-09-18T20:49:45.211Z,11.30
2017-09-18T20:52:14.011Z,11.20
2017-09-18T20:54:41.993Z,11.20
2017-09-18T20:57:09.944Z,11.10
2017-09-18T20:59:37.975Z,11.20
2017-09-18T21:02:06.763Z,11.10
2017-09-18T21:04:34.763Z,11.10
2017-09-18T21:07:02.773Z,11.20
2017-09-18T21:09:30.781Z,11.20
2017-09-18T21:11:58.725Z,11.20
2017-09-18T21:14:27.302Z,11.20
2017-09-18T21:16:55.267Z,11.30
2017-09-18T21:19:25.114Z,11.30
2017-09-18T21:21:53.930Z,11.30
2017-09-18T21:24:24.674Z,11.30
2017-09-18T21:26:52.717Z,11.20
2017-09-18T21:29:20.776Z,11.20
2017-09-18T21:31:48.740Z,11.20
2017-09-18T21:34:16.775Z,11.20
2017-09-18T21:36:45.497Z,11.20
2017-09-18T21:39:13.691Z,11.30
2017-09-18T21:41:43.806Z,11.30
2017-09-18T21:44:11.871Z,11.30
2017-09-18T21:46:40.038Z,11.30
2017-09-18T21:49:08.199Z,11.20
2017-09-18T21:51:36.201Z,11.30
2017-09-18T21:54:04.426Z,11.30
2017-09-18T21:56:32.566Z,11.30
2017-09-18T21:59:00.737Z,11.30
2017-09-18T22:01:28.766Z,11.30
2017-09-18T22:03:56.772Z,11.20
2017-09-18T22:06:24.792Z,11.20
2017-09-18T22:08:52.847Z,11.30
2017-09-18T22:11:21.070Z,11.30
2017-09-18T22:13:49.092Z,11.30
2017-09-18T22:16:17.892Z,11.30
2017-09-18T22:18:45.902Z,11.30
2017-09-18T22:21:13.947Z,11.30
2017-09-18T22:23:41.894Z,11.30
2017-09-18T22:26:09.911Z,11.40
2017-09-18T22:28:37.906Z,11.40
2017-09-18T22:31:06.011Z,11.40
2017-09-18T22:33:33.988Z,11.40
2017-09-18T22:36:02.050Z,11.40
2017-09-18T22:38:30.787Z,11.20
2017-09-18T22:41:02.802Z,11.20
2017-09-18T22:43:30.782Z,11.20
2017-09-18T22:45:59.336Z,11.20
2017-09-18T22:48:27.347Z,11.10
2017-09-18T22:50:58.487Z,11.10
2017-09-18T22:53:26.490Z,11.10
2017-09-18T22:55:54.464Z,11.20
2017-09-18T22:58:22.406Z,11.20
2017-09-18T23:00:53.810Z,11.20
2017-09-18T23:03:22.522Z,11.20
2017-09-18T23:05:50.521Z,11.20
2017-09-18T23:08:18.441Z,11.10
2017-09-18T23:10:46.431Z,11.10
2017-09-18T23:13:14.392Z,11.10
2017-09-18T23:15:43.149Z,11.10
2017-09-18T23:18:11.175Z,11.00
2017-09-18T23:20:39.385Z,11.10
2017-09-18T23:23:07.330Z,11.10
2017-09-18T23:25:35.265Z,11.10
2017-09-18T23:28:03.261Z,11.00
2017-09-18T23:30:35.247Z,11.00
2017-09-18T23:33:03.228Z,11.00
2017-09-18T23:35:31.169Z,11.00
2017-09-18T23:37:59.171Z,11.00
2017-09-18T23:40:27.112Z,11.00
2017-09-18T23:42:55.183Z,11.10
2017-09-18T23:45:23.183Z,11.10
2017-09-18T23:47:51.255Z,11.10
2017-09-18T23:50:19.226Z,11.10
2017-09-18T23:52:47.239Z,11.10
2017-09-18T23:55:15.936Z,11.10
2017-09-18T23:57:44.759Z,11.00
